createdAt,value
2018-05-27T00:01:33.507Z,16.80
2018-05-27T00:04:00.968Z,16.80
2018-05-27T00:06:28.454Z,16.70
2018-05-27T00:08:56.675Z,16.70
2018-05-27T00:11:24.899Z,16.80
2018-05-27T00:13:53.162Z,16.80
2018-05-27T00:16:20.613Z,16.80
2018-05-27T00:18:48.063Z,16.80
2018-05-27T00:21:15.550Z,16.80
2018-05-27T00:23:44.176Z,16.80
2018-05-27T00:26:11.623Z,16.70
2018-05-27T00:28:39.101Z,16.70
2018-05-27T00:31:06.561Z,16.60
2018-05-27T00:33:34.017Z,16.60
2018-05-27T00:36:01.477Z,16.50
2018-05-27T00:38:28.962Z,16.50
2018-05-27T00:40:56.441Z,16.50
2018-05-27T00:43:25.219Z,16.40
2018-05-27T00:45:53.721Z,16.40
2018-05-27T00:48:21.961Z,16.40
2018-05-27T00:50:53.019Z,16.40
2018-05-27T00:53:27.182Z,16.40
2018-05-27T00:55:54.637Z,16.30
2018-05-27T00:58:22.140Z,16.40
2018-05-27T01:00:49.615Z,16.40
2018-05-27T01:03:17.863Z,16.40
2018-05-27T01:05:45.312Z,16.40
2018-05-27T01:08:13.205Z,16.30
2018-05-27T01:10:41.469Z,16.20
2018-05-27T01:13:09.635Z,16.20
2018-05-27T01:15:37.633Z,16.20
2018-05-27T01:18:05.880Z,16.30
2018-05-27T01:20:37.764Z,16.20
2018-05-27T01:23:06.004Z,16.20
2018-05-27T01:25:33.480Z,16.20
2018-05-27T01:28:00.935Z,16.20
2018-05-27T01:30:28.397Z,16.20
2018-05-27T01:32:55.879Z,16.20
2018-05-27T01:35:24.153Z,16.20
2018-05-27T01:37:53.687Z,16.20
2018-05-27T01:40:21.528Z,16.20
2018-05-27T01:42:49.772Z,16.10
2018-05-27T01:45:17.239Z,16.10
2018-05-27T01:47:45.159Z,16.10
2018-05-27T01:50:12.620Z,16.20
2018-05-27T01:52:40.583Z,16.30
2018-05-27T01:55:08.051Z,16.40
2018-05-27T01:57:35.903Z,16.50
2018-05-27T02:00:03.372Z,16.50
2018-05-27T02:02:30.866Z,16.50
2018-05-27T02:04:58.312Z,16.50
2018-05-27T02:07:25.759Z,16.40
2018-05-27T02:09:53.732Z,16.40
2018-05-27T02:12:25.325Z,16.40
2018-05-27T02:14:53.896Z,16.40
2018-05-27T02:17:21.346Z,16.40
2018-05-27T02:19:48.832Z,16.40
2018-05-27T02:22:19.528Z,16.50
2018-05-27T02:24:46.976Z,16.50
2018-05-27T02:27:14.972Z,16.50
2018-05-27T02:29:44.076Z,16.40
2018-05-27T02:32:12.309Z,16.30
2018-05-27T02:34:39.788Z,16.30
2018-05-27T02:37:07.274Z,16.30
2018-05-27T02:39:35.944Z,16.20
2018-05-27T02:42:03.420Z,16.20
2018-05-27T02:44:31.661Z,16.20
2018-05-27T02:46:59.141Z,16.20
2018-05-27T02:49:28.107Z,16.20
2018-05-27T02:51:55.587Z,16.20
2018-05-27T02:54:23.026Z,16.20
2018-05-27T02:56:50.496Z,16.20
2018-05-27T02:59:18.749Z,16.20
2018-05-27T03:01:46.227Z,16.20
2018-05-27T03:04:14.313Z,16.20
2018-05-27T03:06:42.564Z,16.40
2018-05-27T03:09:10.862Z,16.30
2018-05-27T03:11:39.222Z,16.40
2018-05-27T03:14:06.704Z,16.30
2018-05-27T03:16:34.928Z,16.40
2018-05-27T03:19:02.632Z,16.40
2018-05-27T03:21:30.267Z,16.40
2018-05-27T03:23:57.708Z,16.50
2018-05-27T03:26:25.433Z,16.50
2018-05-27T03:28:53.643Z,16.60
2018-05-27T03:31:21.648Z,16.50
2018-05-27T03:33:49.541Z,16.60
2018-05-27T03:36:17.751Z,16.70
2018-05-27T03:38:45.210Z,16.60
2018-05-27T03:41:12.688Z,16.70
2018-05-27T03:43:40.693Z,16.70
2018-05-27T03:46:08.939Z,16.80
2018-05-27T03:48:37.255Z,16.80
2018-05-27T03:51:05.491Z,17.00
2018-05-27T03:53:33.803Z,17.00
2018-05-27T03:56:02.022Z,17.00
2018-05-27T03:58:29.920Z,17.00
2018-05-27T04:00:57.388Z,17.00
2018-05-27T04:03:24.868Z,17.10
2018-05-27T04:06:04.955Z,17.10
2018-05-27T04:08:33.954Z,17.10
2018-05-27T04:11:01.425Z,17.20
2018-05-27T04:13:29.445Z,17.20
2018-05-27T04:15:57.323Z,17.20
2018-05-27T04:18:25.017Z,17.20
2018-05-27T04:20:52.509Z,17.30
2018-05-27T04:23:20.036Z,17.30
2018-05-27T04:25:47.507Z,17.40
2018-05-27T04:28:14.990Z,17.50
2018-05-27T04:30:43.244Z,17.60
2018-05-27T04:33:11.170Z,17.60
2018-05-27T04:35:40.575Z,17.70
2018-05-27T04:38:08.027Z,17.70
2018-05-27T04:40:36.065Z,17.80
2018-05-27T04:43:04.312Z,17.90
2018-05-27T04:45:31.784Z,17.90
2018-05-27T04:47:59.282Z,18.00
2018-05-27T04:50:26.819Z,18.10
2018-05-27T04:52:55.043Z,18.20
2018-05-27T04:55:22.552Z,18.20
2018-05-27T04:57:51.405Z,18.20
2018-05-27T05:00:19.286Z,18.20
2018-05-27T05:02:46.769Z,18.30
2018-05-27T05:05:29.908Z,18.40
2018-05-27T05:07:57.376Z,18.40
2018-05-27T05:10:25.093Z,18.60
2018-05-27T05:12:52.936Z,18.70
2018-05-27T05:15:20.420Z,18.70
2018-05-27T05:17:48.852Z,18.80
2018-05-27T05:20:16.838Z,18.80
2018-05-27T05:22:44.335Z,18.70
2018-05-27T05:25:12.556Z,18.90
2018-05-27T05:27:40.084Z,18.80
2018-05-27T05:30:08.309Z,19.10
2018-05-27T05:32:35.779Z,19.10
2018-05-27T05:35:03.373Z,19.40
2018-05-27T05:37:31.629Z,20.60
2018-05-27T05:40:01.891Z,20.60
2018-05-27T05:42:32.558Z,21.10
2018-05-27T05:45:00.426Z,22.40
2018-05-27T05:47:27.899Z,23.60
2018-05-27T05:49:57.364Z,24.40
2018-05-27T05:52:25.430Z,25.10
2018-05-27T05:54:52.906Z,24.90
2018-05-27T05:57:20.390Z,24.90
2018-05-27T05:59:47.874Z,25.10
2018-05-27T06:02:16.091Z,25.30
2018-05-27T06:04:43.719Z,25.20
2018-05-27T06:07:11.201Z,25.50
2018-05-27T06:09:38.749Z,25.80
2018-05-27T06:12:06.243Z,26.30
2018-05-27T06:14:33.720Z,26.40
2018-05-27T06:17:01.229Z,26.20
2018-05-27T06:19:28.677Z,26.40
2018-05-27T06:21:56.168Z,26.20
2018-05-27T06:24:23.620Z,26.60
2018-05-27T06:26:51.880Z,27.10
2018-05-27T06:29:19.373Z,27.00
2018-05-27T06:31:46.857Z,27.00
2018-05-27T06:34:15.169Z,26.80
2018-05-27T06:36:43.556Z,26.80
2018-05-27T06:39:11.011Z,26.90
2018-05-27T06:41:38.507Z,27.50
2018-05-27T06:44:05.964Z,27.50
2018-05-27T06:46:33.420Z,27.20
2018-05-27T06:49:00.908Z,27.20
2018-05-27T06:51:29.150Z,27.10
2018-05-27T06:53:56.723Z,27.10
2018-05-27T06:56:26.486Z,27.90
2018-05-27T06:58:53.999Z,27.90
2018-05-27T07:01:21.468Z,28.00
2018-05-27T07:03:50.072Z,27.80
2018-05-27T07:06:17.557Z,27.80
2018-05-27T07:08:45.101Z,27.80
2018-05-27T07:11:12.659Z,27.50
2018-05-27T07:13:40.194Z,27.50
2018-05-27T07:16:08.408Z,27.90
2018-05-27T07:18:35.859Z,27.90
2018-05-27T07:21:03.363Z,27.60
2018-05-27T07:23:31.584Z,27.40
2018-05-27T07:25:59.040Z,27.40
2018-05-27T07:28:26.546Z,27.90
2018-05-27T07:30:54.035Z,28.20
2018-05-27T07:33:22.288Z,29.60
2018-05-27T07:35:49.736Z,29.60
2018-05-27T07:38:17.227Z,29.80
2018-05-27T07:40:44.717Z,29.90
2018-05-27T07:43:12.175Z,30.20
2018-05-27T07:45:39.647Z,30.50
2018-05-27T07:48:07.235Z,30.80
2018-05-27T07:50:34.704Z,30.70
2018-05-27T07:53:02.965Z,30.30
2018-05-27T07:55:30.420Z,30.30
2018-05-27T07:57:57.912Z,30.40
2018-05-27T08:00:25.463Z,30.60
2018-05-27T08:02:53.701Z,30.20
2018-05-27T08:05:21.196Z,30.20
2018-05-27T08:07:49.423Z,30.60
2018-05-27T08:10:17.839Z,30.50
2018-05-27T08:12:46.116Z,31.00
2018-05-27T08:15:14.840Z,31.60
2018-05-27T08:17:42.376Z,31.50
2018-05-27T08:20:11.040Z,32.10
2018-05-27T08:22:39.338Z,32.00
2018-05-27T08:25:07.657Z,32.00
2018-05-27T08:27:35.834Z,31.90
2018-05-27T08:30:03.302Z,31.90
2018-05-27T08:32:30.909Z,32.10
2018-05-27T08:34:58.416Z,32.00
2018-05-27T08:37:25.922Z,32.20
2018-05-27T08:39:54.203Z,31.20
2018-05-27T08:42:21.715Z,31.10
2018-05-27T08:44:49.279Z,31.40
2018-05-27T08:47:16.860Z,32.30
2018-05-27T08:49:45.115Z,33.00
2018-05-27T08:52:12.604Z,33.00
2018-05-27T08:54:40.880Z,33.60
2018-05-27T08:57:09.115Z,34.00
2018-05-27T08:59:36.609Z,34.00
2018-05-27T09:02:04.109Z,33.80
2018-05-27T09:04:31.692Z,32.70
2018-05-27T09:06:59.260Z,32.10
2018-05-27T09:09:26.730Z,32.40
2018-05-27T09:14:28.652Z,32.70
2018-05-27T09:16:56.152Z,32.90
2018-05-27T09:19:23.615Z,33.30
2018-05-27T09:21:51.063Z,33.40
2018-05-27T09:24:19.486Z,34.20
2018-05-27T09:26:47.030Z,34.80
2018-05-27T09:29:15.271Z,35.90
2018-05-27T09:31:42.832Z,35.80
2018-05-27T09:34:10.320Z,35.70
2018-05-27T09:36:38.920Z,35.70
2018-05-27T09:39:06.412Z,35.60
2018-05-27T09:41:34.397Z,35.80
2018-05-27T09:44:01.848Z,35.40
2018-05-27T09:46:30.027Z,34.60
2018-05-27T09:48:57.563Z,34.50
2018-05-27T09:51:25.070Z,34.80
2018-05-27T09:53:54.041Z,34.60
2018-05-27T09:56:21.545Z,34.50
2018-05-27T09:58:49.796Z,35.10
2018-05-27T10:01:17.276Z,35.20
2018-05-27T10:03:45.616Z,36.10
2018-05-27T10:06:13.074Z,36.10
2018-05-27T10:08:40.559Z,36.40
2018-05-27T10:11:08.810Z,35.00
2018-05-27T10:13:36.263Z,35.00
2018-05-27T10:16:03.725Z,35.00
2018-05-27T10:18:31.176Z,34.90
2018-05-27T10:20:58.662Z,34.60
2018-05-27T10:23:26.883Z,35.40
2018-05-27T10:25:55.042Z,35.40
2018-05-27T10:28:23.588Z,35.90
2018-05-27T10:30:51.120Z,36.00
2018-05-27T10:33:18.577Z,35.30
2018-05-27T10:35:46.053Z,34.70
2018-05-27T10:38:14.083Z,35.10
2018-05-27T10:40:41.554Z,36.10
2018-05-27T10:43:09.004Z,37.40
2018-05-27T10:45:36.911Z,37.30
2018-05-27T10:48:04.447Z,36.20
2018-05-27T10:50:32.040Z,36.10
2018-05-27T10:53:00.301Z,35.40
2018-05-27T10:55:29.369Z,35.40
2018-05-27T10:57:56.839Z,35.50
2018-05-27T11:00:24.339Z,35.10
2018-05-27T11:02:53.183Z,34.60
2018-05-27T11:05:20.641Z,34.60
2018-05-27T11:07:48.118Z,33.80
2018-05-27T11:10:16.723Z,33.60
2018-05-27T11:12:44.960Z,34.00
2018-05-27T11:15:12.450Z,34.00
2018-05-27T11:17:40.673Z,35.50
2018-05-27T11:20:09.072Z,35.40
2018-05-27T11:22:36.985Z,34.80
2018-05-27T11:25:05.204Z,34.00
2018-05-27T11:27:32.659Z,34.00
2018-05-27T11:30:00.247Z,33.90
2018-05-27T11:32:27.790Z,33.70
2018-05-27T11:34:55.276Z,33.40
2018-05-27T11:37:23.346Z,34.00
2018-05-27T11:39:51.714Z,34.00
2018-05-27T11:42:19.884Z,33.90
2018-05-27T11:44:47.360Z,34.00
2018-05-27T11:47:15.593Z,34.60
2018-05-27T11:49:43.076Z,34.60
2018-05-27T11:52:10.976Z,34.80
2018-05-27T11:54:39.273Z,35.10
2018-05-27T11:57:06.740Z,35.10
2018-05-27T11:59:34.257Z,35.60
2018-05-27T12:02:02.559Z,34.90
2018-05-27T12:04:29.983Z,34.90
2018-05-27T12:06:57.518Z,35.70
2018-05-27T12:09:25.084Z,36.00
2018-05-27T12:11:52.437Z,36.90
2018-05-27T12:14:19.919Z,37.80
2018-05-27T12:16:48.145Z,38.30
2018-05-27T12:19:15.648Z,38.20
2018-05-27T12:21:43.207Z,38.40
2018-05-27T12:24:10.761Z,37.70
2018-05-27T12:26:38.288Z,37.00
2018-05-27T12:29:05.873Z,36.60
2018-05-27T12:31:34.274Z,36.40
2018-05-27T12:34:02.487Z,36.40
2018-05-27T12:36:30.096Z,36.40
2018-05-27T12:38:57.773Z,36.20
2018-05-27T12:41:26.128Z,36.30
2018-05-27T12:43:53.615Z,36.30
2018-05-27T12:46:21.908Z,35.40
2018-05-27T12:48:49.427Z,35.40
2018-05-27T12:51:16.892Z,35.10
2018-05-27T12:53:44.803Z,34.90
2018-05-27T12:56:12.380Z,34.70
2018-05-27T12:58:39.860Z,34.30
2018-05-27T13:01:07.989Z,34.00
2018-05-27T13:03:35.432Z,33.80
2018-05-27T13:06:02.889Z,33.30
2018-05-27T13:08:30.436Z,33.10
2018-05-27T13:10:58.676Z,32.50
2018-05-27T13:13:26.260Z,32.50
2018-05-27T13:15:53.731Z,32.30
2018-05-27T13:18:21.971Z,32.10
2018-05-27T13:20:49.420Z,32.10
2018-05-27T13:23:16.904Z,32.00
2018-05-27T13:25:44.344Z,32.30
2018-05-27T13:28:11.835Z,32.80
2018-05-27T13:30:40.078Z,33.00
2018-05-27T13:33:08.164Z,33.00
2018-05-27T13:35:35.768Z,33.10
2018-05-27T13:38:03.230Z,32.80
2018-05-27T13:40:30.692Z,32.60
2018-05-27T13:42:58.287Z,32.40
2018-05-27T13:45:26.503Z,32.10
2018-05-27T13:47:54.037Z,32.10
2018-05-27T13:50:21.983Z,31.70
2018-05-27T13:52:49.456Z,31.50
2018-05-27T13:55:17.717Z,31.40
2018-05-27T13:57:47.042Z,31.40
2018-05-27T14:00:15.709Z,31.00
2018-05-27T14:02:43.268Z,30.90
2018-05-27T14:05:11.524Z,31.20
2018-05-27T14:07:39.627Z,31.20
2018-05-27T14:10:07.155Z,31.30
2018-05-27T14:12:35.110Z,31.50
2018-05-27T14:15:02.592Z,31.50
2018-05-27T14:17:30.073Z,31.50
2018-05-27T14:19:57.521Z,31.30
2018-05-27T14:22:25.429Z,30.90
2018-05-27T14:24:52.939Z,30.50
2018-05-27T14:27:20.434Z,30.20
2018-05-27T14:29:48.941Z,29.70
2018-05-27T14:32:16.518Z,29.70
2018-05-27T14:34:44.594Z,29.50
2018-05-27T14:37:12.456Z,29.40
2018-05-27T14:39:39.969Z,29.50
2018-05-27T14:42:08.553Z,29.30
2018-05-27T14:44:36.792Z,29.20
2018-05-27T14:47:04.239Z,29.10
2018-05-27T14:49:31.734Z,29.10
2018-05-27T14:52:01.029Z,29.00
2018-05-27T14:54:28.478Z,28.90
2018-05-27T14:56:55.931Z,29.00
2018-05-27T14:59:23.390Z,29.00
2018-05-27T15:01:51.743Z,28.90
2018-05-27T15:04:19.995Z,28.60
2018-05-27T15:06:47.456Z,28.60
2018-05-27T15:09:14.947Z,28.50
2018-05-27T15:11:43.575Z,28.40
2018-05-27T15:14:11.824Z,28.00
2018-05-27T15:16:40.103Z,28.00
2018-05-27T15:19:07.624Z,27.90
2018-05-27T15:21:35.307Z,27.70
2018-05-27T15:24:02.765Z,27.50
2018-05-27T15:26:30.228Z,27.30
2018-05-27T15:28:58.651Z,27.10
2018-05-27T15:31:26.151Z,27.00
2018-05-27T15:33:53.606Z,26.90
2018-05-27T15:36:21.079Z,26.80
2018-05-27T15:38:48.583Z,26.60
2018-05-27T15:41:16.621Z,26.60
2018-05-27T15:43:44.659Z,26.50
2018-05-27T15:46:12.331Z,26.50
2018-05-27T15:48:39.854Z,26.40
2018-05-27T15:51:07.972Z,26.40
2018-05-27T15:53:35.766Z,26.30
2018-05-27T15:56:03.980Z,26.10
2018-05-27T15:58:32.074Z,26.10
2018-05-27T16:00:59.563Z,25.90
2018-05-27T16:03:27.795Z,25.90
2018-05-27T16:05:55.259Z,25.80
2018-05-27T16:08:22.718Z,25.80
2018-05-27T16:10:50.184Z,25.70
2018-05-27T16:13:18.488Z,25.60
2018-05-27T16:15:46.705Z,25.20
2018-05-27T16:18:14.198Z,25.20
2018-05-27T16:20:42.096Z,24.90
2018-05-27T16:23:10.311Z,24.50
2018-05-27T16:25:37.771Z,24.50
2018-05-27T16:28:05.252Z,24.50
2018-05-27T16:30:32.731Z,24.40
2018-05-27T16:33:00.199Z,24.30
2018-05-27T16:35:28.440Z,24.30
2018-05-27T16:37:55.904Z,24.30
2018-05-27T16:40:23.361Z,24.30
2018-05-27T16:42:50.863Z,24.30
2018-05-27T16:45:18.349Z,24.10
2018-05-27T16:47:46.667Z,24.10
2018-05-27T16:50:14.077Z,24.00
2018-05-27T16:52:41.602Z,24.00
2018-05-27T16:55:09.837Z,23.90
2018-05-27T16:57:37.724Z,23.80
2018-05-27T17:00:05.177Z,23.70
2018-05-27T17:02:32.857Z,23.70
2018-05-27T17:05:01.086Z,23.90
2018-05-27T17:07:28.572Z,23.80
2018-05-27T17:09:56.024Z,23.90
2018-05-27T17:12:23.642Z,24.00
2018-05-27T17:14:51.842Z,24.00
2018-05-27T17:17:19.326Z,24.10
2018-05-27T17:19:46.830Z,24.10
2018-05-27T17:22:14.315Z,24.20
2018-05-27T17:24:41.755Z,24.30
2018-05-27T17:27:09.652Z,24.30
2018-05-27T17:29:37.673Z,24.40
2018-05-27T17:32:05.861Z,24.50
2018-05-27T17:34:33.730Z,24.50
2018-05-27T17:37:01.204Z,24.60
2018-05-27T17:39:28.704Z,24.60
2018-05-27T17:41:57.383Z,24.60
2018-05-27T17:44:24.856Z,24.60
2018-05-27T17:46:53.156Z,24.50
2018-05-27T17:49:20.667Z,24.50
2018-05-27T17:51:48.152Z,24.50
2018-05-27T17:54:16.861Z,24.40
2018-05-27T17:56:44.589Z,24.40
2018-05-27T17:59:12.583Z,24.30
2018-05-27T18:01:40.037Z,24.30
2018-05-27T18:04:08.069Z,24.30
2018-05-27T18:06:35.504Z,24.20
2018-05-27T18:09:03.724Z,24.10
2018-05-27T18:11:31.980Z,24.10
2018-05-27T18:13:59.461Z,24.10
2018-05-27T18:16:27.693Z,24.00
2018-05-27T18:18:55.145Z,23.90
2018-05-27T18:21:22.628Z,23.90
2018-05-27T18:23:50.157Z,23.90
2018-05-27T18:26:17.572Z,23.80
2018-05-27T18:28:45.039Z,23.50
2018-05-27T18:31:13.283Z,23.20
2018-05-27T18:33:41.237Z,22.90
2018-05-27T18:36:08.726Z,22.60
2018-05-27T18:38:36.953Z,22.40
2018-05-27T18:41:04.424Z,22.30
2018-05-27T18:43:31.927Z,22.20
2018-05-27T18:46:00.238Z,22.20
2018-05-27T18:48:27.712Z,22.00
2018-05-27T18:50:55.242Z,21.90
2018-05-27T18:53:22.726Z,21.70
2018-05-27T18:55:50.172Z,21.50
2018-05-27T18:58:17.629Z,21.40
2018-05-27T19:00:45.109Z,21.20
2018-05-27T19:03:12.972Z,21.00
2018-05-27T19:05:40.456Z,20.90
2018-05-27T19:08:09.101Z,20.80
2018-05-27T19:10:36.560Z,20.80
2018-05-27T19:13:04.619Z,20.60
2018-05-27T19:15:32.091Z,20.50
2018-05-27T19:17:59.685Z,20.40
2018-05-27T19:20:30.427Z,20.10
2018-05-27T19:22:58.676Z,20.00
2018-05-27T19:25:26.153Z,20.00
2018-05-27T19:27:54.417Z,19.90
2018-05-27T19:30:21.867Z,19.80
2018-05-27T19:32:49.365Z,19.80
2018-05-27T19:35:16.816Z,19.80
2018-05-27T19:37:44.326Z,19.70
2018-05-27T19:40:11.800Z,19.70
2018-05-27T19:42:39.372Z,19.70
2018-05-27T19:45:06.835Z,19.70
2018-05-27T19:47:35.052Z,19.80
2018-05-27T19:50:03.421Z,19.80
2018-05-27T19:52:30.875Z,19.80
2018-05-27T19:54:59.057Z,19.80
2018-05-27T19:57:26.528Z,19.90
2018-05-27T19:59:54.720Z,19.90
2018-05-27T20:02:22.177Z,19.90
2018-05-27T20:04:49.727Z,20.00
2018-05-27T20:07:17.186Z,20.10
2018-05-27T20:09:44.709Z,20.10
2018-05-27T20:12:14.640Z,20.10
2018-05-27T20:14:42.358Z,20.10
2018-05-27T20:17:10.364Z,20.20
2018-05-27T20:19:37.837Z,20.20
2018-05-27T20:22:05.320Z,20.30
2018-05-27T20:24:32.791Z,20.40
2018-05-27T20:27:00.270Z,20.50
2018-05-27T20:29:28.519Z,20.60
2018-05-27T20:31:56.660Z,20.60
2018-05-27T20:34:24.156Z,20.60
2018-05-27T20:36:52.110Z,20.60
2018-05-27T20:39:19.580Z,20.60
2018-05-27T20:41:48.433Z,20.50
2018-05-27T20:44:16.530Z,20.40
2018-05-27T20:46:44.663Z,20.30
2018-05-27T20:49:12.152Z,20.20
2018-05-27T20:51:40.860Z,20.10
2018-05-27T20:54:08.671Z,20.10
2018-05-27T20:56:37.450Z,20.00
2018-05-27T20:59:05.673Z,19.80
2018-05-27T21:01:33.561Z,19.80
2018-05-27T21:04:01.665Z,19.80
2018-05-27T21:06:29.214Z,19.80
2018-05-27T21:08:57.420Z,19.70
2018-05-27T21:11:24.880Z,19.60
2018-05-27T21:13:52.371Z,19.60
2018-05-27T21:16:20.032Z,19.60
2018-05-27T21:18:47.492Z,19.60
2018-05-27T21:21:14.957Z,19.60
2018-05-27T21:23:42.441Z,19.60
2018-05-27T21:26:11.076Z,19.60
2018-05-27T21:28:39.002Z,19.50
2018-05-27T21:31:06.473Z,19.60
2018-05-27T21:33:33.932Z,19.60
2018-05-27T21:36:01.406Z,19.70
2018-05-27T21:38:28.901Z,19.90
2018-05-27T21:40:56.350Z,19.90
2018-05-27T21:43:24.333Z,20.00
2018-05-27T21:48:26.900Z,20.00
2018-05-27T21:50:54.380Z,20.00
2018-05-27T21:53:22.664Z,19.90
2018-05-27T21:55:50.900Z,19.90
2018-05-27T21:58:18.388Z,19.80
2018-05-27T22:00:45.864Z,19.80
2018-05-27T22:03:15.037Z,19.70
2018-05-27T22:05:42.548Z,19.80
2018-05-27T22:08:10.029Z,19.70
2018-05-27T22:10:37.515Z,19.70
2018-05-27T22:13:05.957Z,19.60
2018-05-27T22:15:33.433Z,19.60
2018-05-27T22:18:02.122Z,19.40
2018-05-27T22:20:29.603Z,19.40
2018-05-27T22:22:57.055Z,19.30
2018-05-27T22:25:25.314Z,19.20
2018-05-27T22:27:52.814Z,19.20
2018-05-27T22:30:21.644Z,19.20
2018-05-27T22:32:49.140Z,19.20
2018-05-27T22:35:16.624Z,19.20
2018-05-27T22:37:45.292Z,19.30
2018-05-27T22:40:14.378Z,19.30
2018-05-27T22:42:42.605Z,19.30
2018-05-27T22:45:10.520Z,19.30
2018-05-27T22:47:37.988Z,19.30
2018-05-27T22:50:06.234Z,19.30
2018-05-27T22:52:36.207Z,19.30
2018-05-27T22:55:03.683Z,19.30
2018-05-27T22:57:31.178Z,19.30
2018-05-27T22:59:58.628Z,19.20
2018-05-27T23:02:28.681Z,19.20
2018-05-27T23:04:56.172Z,19.20
2018-05-27T23:07:23.654Z,19.00
2018-05-27T23:09:51.150Z,18.90
2018-05-27T23:12:19.361Z,18.70
2018-05-27T23:14:46.816Z,18.70
2018-05-27T23:17:14.305Z,18.60
2018-05-27T23:19:43.624Z,18.70
2018-05-27T23:22:11.882Z,18.60
2018-05-27T23:24:39.361Z,18.60
2018-05-27T23:27:07.618Z,18.60
2018-05-27T23:29:35.089Z,18.50
2018-05-27T23:32:02.844Z,18.50
2018-05-27T23:34:30.532Z,18.40
2018-05-27T23:36:58.792Z,18.40
2018-05-27T23:39:26.274Z,18.40
2018-05-27T23:41:54.927Z,18.60
2018-05-27T23:44:22.391Z,18.60
2018-05-27T23:46:49.851Z,18.70
2018-05-27T23:49:18.100Z,18.60
2018-05-27T23:51:45.596Z,18.60
2018-05-27T23:54:13.844Z,18.50
2018-05-27T23:56:41.292Z,18.40
2018-05-27T23:59:08.823Z,18.30
